createdAt,value
2023-03-18T00:00:15.554Z,4.25
2023-03-18T00:03:18.264Z,4.22
2023-03-18T00:06:22.032Z,4.16
2023-03-18T00:09:24.394Z,4.19
2023-03-18T00:12:26.590Z,4.02
2023-03-18T00:15:29.946Z,4.04
2023-03-18T00:18:32.916Z,4.12
2023-03-18T00:21:35.116Z,3.86
2023-03-18T00:24:37.639Z,3.67
2023-03-18T00:27:39.989Z,3.67
2023-03-18T00:30:42.766Z,3.58
2023-03-18T00:33:50.256Z,3.68
2023-03-18T00:36:57.038Z,3.58
2023-03-18T00:40:06.877Z,3.38
2023-03-18T00:43:12.655Z,3.20
2023-03-18T00:46:17.883Z,2.95
2023-03-18T00:49:20.601Z,3.05
2023-03-18T00:52:22.900Z,3.08
2023-03-18T00:55:26.033Z,2.79
2023-03-18T00:58:28.247Z,2.81
2023-03-18T01:01:31.417Z,2.89
2023-03-18T01:04:33.769Z,2.84
2023-03-18T01:07:36.448Z,2.72
2023-03-18T01:10:39.023Z,2.88
2023-03-18T01:13:41.776Z,2.59
2023-03-18T01:16:44.764Z,2.14
2023-03-18T01:19:48.846Z,2.52
2023-03-18T01:22:51.783Z,2.30
2023-03-18T01:25:53.944Z,2.29
2023-03-18T01:28:56.125Z,2.12
2023-03-18T01:31:58.347Z,2.22
2023-03-18T01:35:00.629Z,2.32
2023-03-18T01:38:05.443Z,2.00
2023-03-18T01:41:07.706Z,1.85
2023-03-18T01:44:15.430Z,1.69
2023-03-18T01:47:17.706Z,1.81
2023-03-18T01:50:23.297Z,1.53
2023-03-18T01:53:28.888Z,1.38
2023-03-18T01:56:31.648Z,1.78
2023-03-18T01:59:38.464Z,1.69
2023-03-18T02:02:42.433Z,1.84
2023-03-18T02:05:44.925Z,1.94
2023-03-18T02:08:47.935Z,2.18
2023-03-18T02:11:51.768Z,2.07
2023-03-18T02:14:54.038Z,2.27
2023-03-18T02:18:01.679Z,2.40
2023-03-18T02:21:14.227Z,2.28
2023-03-18T02:24:22.657Z,2.42
2023-03-18T02:27:30.218Z,2.50
2023-03-18T02:30:39.316Z,2.45
2023-03-18T02:33:42.746Z,2.65
2023-03-18T02:36:44.922Z,2.46
2023-03-18T02:39:47.129Z,2.41
2023-03-18T02:42:49.977Z,2.59
2023-03-18T02:46:01.732Z,2.57
2023-03-18T02:49:07.705Z,2.65
2023-03-18T02:52:10.087Z,2.65
2023-03-18T02:55:12.858Z,2.56
2023-03-18T02:58:14.999Z,2.62
2023-03-18T03:01:17.730Z,2.55
2023-03-18T03:04:23.670Z,2.55
2023-03-18T03:07:27.857Z,2.48
2023-03-18T03:10:30.881Z,2.47
2023-03-18T03:13:33.642Z,2.51
2023-03-18T03:16:36.951Z,2.53
2023-03-18T03:19:39.183Z,2.51
2023-03-18T03:22:42.427Z,2.48
2023-03-18T03:25:45.320Z,2.51
2023-03-18T03:28:48.107Z,2.50
2023-03-18T03:31:50.412Z,1.99
2023-03-18T03:34:52.595Z,1.48
2023-03-18T03:37:54.934Z,1.17
2023-03-18T03:40:57.163Z,0.89
2023-03-18T03:43:59.707Z,0.59
2023-03-18T03:47:02.146Z,0.59
2023-03-18T03:50:05.956Z,0.57
2023-03-18T03:53:08.338Z,0.61
2023-03-18T03:56:11.475Z,0.48
2023-03-18T03:59:13.770Z,0.45
2023-03-18T04:02:16.272Z,0.44
2023-03-18T04:05:20.915Z,0.40
2023-03-18T04:08:23.174Z,0.35
2023-03-18T04:11:25.597Z,0.55
2023-03-18T04:14:28.065Z,0.25
2023-03-18T04:17:30.234Z,0.28
2023-03-18T04:20:37.627Z,0.03
2023-03-18T04:23:39.838Z,0.00
2023-03-18T04:26:42.050Z,0.09
2023-03-18T04:29:44.910Z,0.18
2023-03-18T04:32:47.169Z,0.15
2023-03-18T04:35:49.525Z,-0.05
2023-03-18T04:38:51.897Z,-0.05
2023-03-18T04:41:54.751Z,0.11
2023-03-18T04:44:57.857Z,-0.03
2023-03-18T04:48:00.055Z,0.12
2023-03-18T04:51:02.308Z,0.19
2023-03-18T04:54:04.683Z,0.17
2023-03-18T04:57:07.620Z,0.20
2023-03-18T05:00:12.393Z,0.21
2023-03-18T05:03:14.771Z,0.27
2023-03-18T05:06:30.492Z,0.46
2023-03-18T05:09:34.254Z,0.58
2023-03-18T05:12:37.163Z,0.80
2023-03-18T05:15:39.393Z,0.91
2023-03-18T05:18:41.917Z,1.12
2023-03-18T05:21:44.136Z,1.11
2023-03-18T05:24:46.671Z,2.36
2023-03-18T05:27:49.575Z,2.15
2023-03-18T05:30:52.431Z,3.13
2023-03-18T05:33:54.650Z,3.35
2023-03-18T05:36:57.751Z,3.32
2023-03-18T05:40:00.110Z,4.41
2023-03-18T05:43:02.928Z,4.94
2023-03-18T05:46:05.926Z,3.95
2023-03-18T05:49:08.901Z,3.20
2023-03-18T05:52:11.362Z,2.92
2023-03-18T05:55:13.948Z,2.80
2023-03-18T05:58:16.143Z,2.66
2023-03-18T06:01:20.019Z,2.72
2023-03-18T06:04:22.400Z,2.84
2023-03-18T06:07:24.644Z,2.83
2023-03-18T06:10:27.085Z,2.87
2023-03-18T06:13:30.128Z,2.99
2023-03-18T06:16:33.833Z,2.95
2023-03-18T06:19:36.116Z,3.15
2023-03-18T06:22:38.916Z,3.22
2023-03-18T06:25:41.330Z,3.36
2023-03-18T06:28:44.619Z,3.30
2023-03-18T06:31:46.807Z,3.31
2023-03-18T06:34:49.771Z,3.66
2023-03-18T06:37:53.195Z,3.64
2023-03-18T06:40:56.789Z,3.97
2023-03-18T06:43:59.175Z,4.25
2023-03-18T06:47:01.726Z,4.11
2023-03-18T06:50:04.382Z,4.24
2023-03-18T06:53:10.871Z,4.22
2023-03-18T06:56:16.069Z,4.22
2023-03-18T06:59:19.256Z,4.34
2023-03-18T07:02:23.643Z,4.55
2023-03-18T07:05:26.503Z,4.88
2023-03-18T07:08:29.320Z,5.07
2023-03-18T07:11:31.627Z,5.08
2023-03-18T07:14:33.848Z,5.00
2023-03-18T07:17:37.364Z,5.26
2023-03-18T07:20:40.304Z,5.68
2023-03-18T07:23:42.723Z,5.81
2023-03-18T07:26:45.505Z,6.00
2023-03-18T07:29:47.748Z,5.84
2023-03-18T07:32:51.304Z,5.88
2023-03-18T07:35:53.616Z,6.11
2023-03-18T07:38:56.840Z,6.66
2023-03-18T07:41:59.419Z,6.74
2023-03-18T07:45:01.615Z,6.79
2023-03-18T07:48:04.092Z,7.34
2023-03-18T07:51:06.842Z,7.62
2023-03-18T07:54:09.238Z,7.58
2023-03-18T07:57:11.831Z,7.30
2023-03-18T08:00:14.669Z,7.41
2023-03-18T08:03:16.853Z,7.49
2023-03-18T08:06:20.616Z,7.05
2023-03-18T08:09:23.173Z,7.30
2023-03-18T08:12:26.150Z,7.92
2023-03-18T08:15:28.448Z,7.30
2023-03-18T08:18:30.986Z,7.75
2023-03-18T08:21:33.242Z,7.81
2023-03-18T08:24:37.347Z,8.09
2023-03-18T08:27:40.404Z,8.68
2023-03-18T08:30:42.676Z,8.63
2023-03-18T08:33:44.862Z,9.07
2023-03-18T08:36:47.108Z,8.63
2023-03-18T08:39:49.338Z,9.08
2023-03-18T08:42:52.310Z,9.35
2023-03-18T08:45:54.820Z,9.45
2023-03-18T08:48:57.057Z,9.72
2023-03-18T08:51:59.209Z,10.04
2023-03-18T08:55:01.546Z,9.84
2023-03-18T08:58:06.296Z,9.82
2023-03-18T09:01:10.773Z,10.17
2023-03-18T09:04:14.906Z,10.38
2023-03-18T09:07:19.101Z,10.31
2023-03-18T09:10:21.510Z,10.43
2023-03-18T09:13:23.794Z,9.95
2023-03-18T09:16:26.025Z,10.57
2023-03-18T09:19:28.313Z,11.00
2023-03-18T09:22:30.759Z,10.61
2023-03-18T09:25:34.300Z,10.54
2023-03-18T09:28:37.312Z,10.50
2023-03-18T09:31:40.336Z,11.25
2023-03-18T09:34:42.499Z,11.10
2023-03-18T09:37:44.692Z,11.00
2023-03-18T09:41:25.987Z,11.19
2023-03-18T09:44:36.434Z,11.17
2023-03-18T09:47:41.233Z,10.96
2023-03-18T09:51:09.220Z,11.18
2023-03-18T09:54:15.963Z,11.20
2023-03-18T09:57:48.715Z,11.43
2023-03-18T10:00:55.365Z,11.39
2023-03-18T10:04:07.556Z,10.99
2023-03-18T10:07:20.572Z,11.06
2023-03-18T10:10:28.484Z,11.29
2023-03-18T10:13:42.760Z,11.34
2023-03-18T10:17:06.107Z,11.46
2023-03-18T10:20:31.271Z,11.74
2023-03-18T10:24:02.831Z,12.15
2023-03-18T10:27:16.291Z,11.77
2023-03-18T10:30:36.977Z,11.77
2023-03-18T10:33:55.203Z,11.81
2023-03-18T10:37:34.982Z,11.94
2023-03-18T10:40:39.761Z,11.50
2023-03-18T10:43:42.378Z,11.30
2023-03-18T10:46:47.574Z,11.91
2023-03-18T10:50:06.272Z,12.13
2023-03-18T10:53:27.949Z,12.03
2023-03-18T10:56:30.625Z,12.28
2023-03-18T10:59:34.576Z,12.09
2023-03-18T11:02:39.048Z,12.30
2023-03-18T11:05:42.837Z,12.11
2023-03-18T11:08:48.020Z,12.20
2023-03-18T11:11:56.628Z,12.36
2023-03-18T11:14:58.802Z,12.35
2023-03-18T11:18:02.614Z,12.36
2023-03-18T11:21:12.946Z,12.63
2023-03-18T11:24:44.689Z,12.56
2023-03-18T11:27:49.317Z,11.78
2023-03-18T11:30:56.168Z,12.22
2023-03-18T11:33:59.309Z,12.55
2023-03-18T11:37:06.413Z,12.38
2023-03-18T11:40:14.433Z,12.32
2023-03-18T11:43:21.703Z,12.47
2023-03-18T11:46:24.836Z,12.45
2023-03-18T11:49:28.575Z,12.56
2023-03-18T11:52:47.190Z,12.52
2023-03-18T11:55:52.765Z,12.50
2023-03-18T11:58:57.677Z,12.55
2023-03-18T12:02:28.072Z,12.58
2023-03-18T12:06:00.603Z,12.54
2023-03-18T12:09:21.403Z,12.48
2023-03-18T12:12:42.907Z,12.99
2023-03-18T12:15:50.606Z,12.77
2023-03-18T12:18:58.792Z,12.24
2023-03-18T12:22:39.222Z,12.33
2023-03-18T12:25:52.551Z,12.66
2023-03-18T12:29:13.036Z,12.27
2023-03-18T12:32:18.043Z,12.45
2023-03-18T12:35:24.571Z,11.89
2023-03-18T12:38:54.352Z,12.34
2023-03-18T12:42:03.508Z,12.87
2023-03-18T12:45:13.098Z,12.85
2023-03-18T12:48:44.176Z,13.07
2023-03-18T12:52:01.818Z,12.51
2023-03-18T12:55:29.467Z,12.93
2023-03-18T12:58:37.842Z,12.85
2023-03-18T13:01:49.504Z,12.94
2023-03-18T13:04:56.731Z,12.83
2023-03-18T13:08:30.227Z,12.73
2023-03-18T13:11:53.800Z,13.02
2023-03-18T13:15:08.580Z,12.50
2023-03-18T13:18:19.638Z,12.74
2023-03-18T13:21:24.415Z,12.98
2023-03-18T13:24:30.076Z,12.76
2023-03-18T13:27:40.904Z,12.81
2023-03-18T13:31:10.128Z,13.11
2023-03-18T13:34:43.252Z,13.19
2023-03-18T13:38:03.606Z,13.41
2023-03-18T13:41:32.496Z,13.46
2023-03-18T13:44:43.393Z,13.13
2023-03-18T13:47:46.405Z,13.12
2023-03-18T13:50:51.235Z,13.19
2023-03-18T13:53:56.765Z,13.17
2023-03-18T13:57:16.945Z,12.85
2023-03-18T14:00:29.091Z,12.76
2023-03-18T14:03:52.937Z,12.79
2023-03-18T14:06:59.472Z,12.95
2023-03-18T14:10:17.020Z,12.95
2023-03-18T14:13:28.080Z,12.99
2023-03-18T14:16:37.885Z,13.24
2023-03-18T14:19:40.623Z,13.29
2023-03-18T14:22:44.209Z,12.22
2023-03-18T14:25:49.240Z,12.69
2023-03-18T14:28:55.459Z,13.05
2023-03-18T14:32:01.622Z,13.18
2023-03-18T14:35:28.713Z,12.67
2023-03-18T14:38:36.382Z,13.11
2023-03-18T14:41:42.539Z,12.87
2023-03-18T14:44:50.660Z,12.74
2023-03-18T14:47:55.966Z,12.67
2023-03-18T14:51:01.172Z,12.24
2023-03-18T14:54:06.139Z,12.43
2023-03-18T14:57:09.279Z,12.71
2023-03-18T15:00:16.592Z,12.34
2023-03-18T15:03:25.667Z,12.48
2023-03-18T15:06:29.238Z,12.65
2023-03-18T15:09:32.579Z,12.55
2023-03-18T15:12:34.748Z,12.73
2023-03-18T15:15:37.398Z,12.73
2023-03-18T15:18:40.193Z,12.53
2023-03-18T15:21:42.683Z,12.49
2023-03-18T15:24:44.862Z,12.56
2023-03-18T15:27:48.391Z,12.54
2023-03-18T15:30:56.060Z,12.42
2023-03-18T15:34:16.083Z,12.29
2023-03-18T15:37:40.790Z,12.15
2023-03-18T15:41:07.487Z,12.12
2023-03-18T15:44:16.512Z,12.05
2023-03-18T15:47:28.460Z,12.01
2023-03-18T15:50:33.914Z,12.00
2023-03-18T15:53:44.822Z,11.94
2023-03-18T15:56:48.828Z,11.78
2023-03-18T15:59:51.004Z,11.80
2023-03-18T16:02:53.723Z,11.90
2023-03-18T16:05:56.569Z,11.89
2023-03-18T16:08:58.791Z,11.69
2023-03-18T16:12:05.159Z,11.63
2023-03-18T16:15:11.012Z,11.65
2023-03-18T16:18:13.296Z,11.49
2023-03-18T16:21:15.535Z,11.45
2023-03-18T16:24:18.412Z,11.31
2023-03-18T16:27:37.631Z,11.24
2023-03-18T16:30:40.814Z,11.25
2023-03-18T16:33:45.205Z,11.18
2023-03-18T16:36:50.111Z,11.13
2023-03-18T16:39:55.472Z,11.05
2023-03-18T16:42:57.904Z,10.82
2023-03-18T16:46:03.823Z,10.84
2023-03-18T16:49:06.200Z,10.82
2023-03-18T16:52:11.690Z,10.50
2023-03-18T16:55:16.286Z,10.67
2023-03-18T16:58:22.585Z,10.47
2023-03-18T17:01:26.608Z,10.43
2023-03-18T17:04:30.849Z,10.29
2023-03-18T17:07:36.818Z,10.25
2023-03-18T17:10:39.793Z,10.17
2023-03-18T17:13:41.958Z,10.14
2023-03-18T17:16:44.712Z,10.03
2023-03-18T17:19:48.618Z,10.03
2023-03-18T17:22:51.080Z,9.96
2023-03-18T17:25:55.427Z,9.99
2023-03-18T17:28:58.920Z,9.84
2023-03-18T17:32:01.748Z,9.80
2023-03-18T17:35:12.459Z,9.64
2023-03-18T17:38:15.691Z,9.66
2023-03-18T17:41:19.937Z,9.58
2023-03-18T17:44:30.208Z,9.60
2023-03-18T17:47:32.949Z,9.52
2023-03-18T17:50:35.442Z,9.46
2023-03-18T17:53:40.866Z,9.48
2023-03-18T17:56:44.005Z,9.51
2023-03-18T17:59:46.586Z,9.42
2023-03-18T18:02:49.125Z,9.46
2023-03-18T18:05:54.056Z,9.39
2023-03-18T18:09:00.971Z,9.33
2023-03-18T18:12:06.720Z,9.34
2023-03-18T18:15:27.694Z,9.26
2023-03-18T18:18:30.105Z,9.21
2023-03-18T18:21:32.423Z,9.21
2023-03-18T18:24:34.792Z,9.20
2023-03-18T18:27:37.222Z,9.13
2023-03-18T18:30:39.981Z,9.14
2023-03-18T18:33:45.495Z,9.08
2023-03-18T18:36:49.671Z,9.04
2023-03-18T18:39:52.370Z,8.99
2023-03-18T18:42:54.573Z,9.03
2023-03-18T18:45:59.051Z,8.94
2023-03-18T18:49:01.782Z,8.89
2023-03-18T18:52:06.164Z,8.91
2023-03-18T18:55:10.418Z,8.91
2023-03-18T18:58:17.692Z,8.96
2023-03-18T19:01:20.625Z,8.84
2023-03-18T19:04:23.882Z,8.96
2023-03-18T19:07:26.963Z,8.94
2023-03-18T19:10:29.352Z,8.91
2023-03-18T19:13:34.282Z,8.91
2023-03-18T19:16:37.039Z,8.88
2023-03-18T19:19:39.705Z,8.92
2023-03-18T19:22:43.313Z,8.88
2023-03-18T19:25:46.729Z,8.85
2023-03-18T19:28:58.453Z,8.90
2023-03-18T19:32:02.087Z,8.86
2023-03-18T19:35:05.658Z,8.85
2023-03-18T19:38:14.880Z,8.91
2023-03-18T19:41:17.462Z,8.77
2023-03-18T19:44:25.575Z,8.77
2023-03-18T19:47:29.769Z,8.85
2023-03-18T19:50:32.620Z,8.77
2023-03-18T19:53:36.101Z,8.77
2023-03-18T19:56:39.787Z,8.80
2023-03-18T19:59:45.733Z,8.76
2023-03-18T20:02:50.789Z,8.71
2023-03-18T20:05:53.293Z,8.61
2023-03-18T20:08:55.747Z,8.64
2023-03-18T20:11:59.749Z,8.66
2023-03-18T20:15:04.626Z,8.64
2023-03-18T20:18:14.316Z,8.58
2023-03-18T20:21:22.804Z,8.46
2023-03-18T20:24:29.412Z,8.40
2023-03-18T20:27:32.229Z,8.38
2023-03-18T20:30:37.359Z,8.26
2023-03-18T20:33:39.829Z,8.22
2023-03-18T20:36:42.508Z,8.20
2023-03-18T20:39:45.068Z,8.02
2023-03-18T20:42:47.557Z,7.89
2023-03-18T20:45:53.918Z,7.93
2023-03-18T20:48:57.327Z,7.91
2023-03-18T20:51:59.536Z,7.82
2023-03-18T20:55:02.103Z,7.80
2023-03-18T20:58:05.904Z,7.68
2023-03-18T21:01:13.721Z,7.68
2023-03-18T21:04:16.535Z,7.53
2023-03-18T21:07:19.042Z,7.38
2023-03-18T21:10:25.885Z,7.38
2023-03-18T21:13:29.321Z,7.40
2023-03-18T21:16:36.425Z,7.29
2023-03-18T21:19:40.533Z,7.39
2023-03-18T21:22:43.428Z,7.32
2023-03-18T21:25:45.738Z,7.28
2023-03-18T21:28:47.979Z,7.22
2023-03-18T21:31:50.461Z,7.21
2023-03-18T21:34:53.552Z,7.13
2023-03-18T21:37:56.205Z,7.13
2023-03-18T21:40:59.224Z,7.06
2023-03-18T21:44:01.478Z,6.75
2023-03-18T21:47:03.746Z,6.86
2023-03-18T21:50:06.994Z,6.75
2023-03-18T21:53:14.179Z,6.79
2023-03-18T21:56:16.869Z,6.83
2023-03-18T21:59:19.046Z,6.56
2023-03-18T22:02:30.717Z,6.57
2023-03-18T22:05:33.079Z,6.65
2023-03-18T22:08:35.697Z,6.36
2023-03-18T22:11:38.036Z,6.46
2023-03-18T22:14:40.217Z,6.53
2023-03-18T22:17:42.414Z,6.38
2023-03-18T22:20:46.103Z,6.42
2023-03-18T22:23:48.685Z,6.23
2023-03-18T22:26:50.863Z,6.06
2023-03-18T22:29:54.259Z,6.03
2023-03-18T22:32:57.313Z,5.99
2023-03-18T22:35:59.787Z,5.91
2023-03-18T22:39:02.029Z,5.85
2023-03-18T22:42:04.373Z,5.77
2023-03-18T22:45:24.148Z,5.96
2023-03-18T22:48:26.790Z,6.08
2023-03-18T22:51:30.010Z,5.98
2023-03-18T22:54:32.206Z,5.85
2023-03-18T22:57:34.376Z,5.69
2023-03-18T23:00:37.413Z,5.74
2023-03-18T23:03:40.541Z,5.90
2023-03-18T23:06:43.141Z,5.79
2023-03-18T23:09:56.155Z,5.84
2023-03-18T23:12:59.161Z,5.88
2023-03-18T23:16:05.261Z,5.63
2023-03-18T23:19:07.514Z,5.53
2023-03-18T23:22:11.787Z,5.50
2023-03-18T23:25:17.996Z,5.55
2023-03-18T23:28:20.211Z,5.51
2023-03-18T23:31:22.414Z,5.44
2023-03-18T23:34:24.819Z,5.57
2023-03-18T23:37:27.061Z,5.30
2023-03-18T23:40:29.290Z,5.28
2023-03-18T23:43:31.602Z,5.21
2023-03-18T23:46:33.866Z,5.21
2023-03-18T23:49:36.639Z,5.13
2023-03-18T23:52:38.927Z,5.23
2023-03-18T23:55:41.470Z,5.12
2023-03-18T23:58:43.705Z,5.22
